sensor_id;sensor_type;location;lat;lon;timestamp;temperature;humidity
23721;DHT22;42950;52.134;5.578;2023-11-21T00:01:40;8.30;99.90
23721;DHT22;42950;52.134;5.578;2023-11-21T00:04:05;8.30;99.90
23721;DHT22;42950;52.134;5.578;2023-11-21T00:06:32;8.40;99.90
23721;DHT22;42950;52.134;5.578;2023-11-21T00:08:58;8.30;99.90
23721;DHT22;42950;52.134;5.578;2023-11-21T00:11:24;8.30;99.90
23721;DHT22;42950;52.134;5.578;2023-11-21T00:13:50;8.30;99.90
23721;DHT22;42950;52.134;5.578;2023-11-21T00:16:16;8.30;99.90
23721;DHT22;42950;52.134;5.578;2023-11-21T00:18:41;8.20;99.90
23721;DHT22;42950;52.134;5.578;2023-11-21T00:21:08;8.20;99.90
23721;DHT22;42950;52.134;5.578;2023-11-21T00:23:35;8.20;99.90
23721;DHT22;42950;52.134;5.578;2023-11-21T00:26:00;8.20;99.90
23721;DHT22;42950;52.134;5.578;2023-11-21T00:28:26;8.20;99.90
23721;DHT22;42950;52.134;5.578;2023-11-21T00:30:52;8.10;99.90
23721;DHT22;42950;52.134;5.578;2023-11-21T00:33:17;8.10;99.90
23721;DHT22;42950;52.134;5.578;2023-11-21T00:35:43;8.20;99.90
23721;DHT22;42950;52.134;5.578;2023-11-21T00:38:09;8.10;99.90
23721;DHT22;42950;52.134;5.578;2023-11-21T00:40:34;8.10;99.90
23721;DHT22;42950;52.134;5.578;2023-11-21T00:43:00;8.10;99.90
23721;DHT22;42950;52.134;5.578;2023-11-21T00:45:26;8.10;99.90
23721;DHT22;42950;52.134;5.578;2023-11-21T00:47:51;8.10;99.90
23721;DHT22;42950;52.134;5.578;2023-11-21T00:50:17;8.10;99.90
23721;DHT22;42950;52.134;5.578;2023-11-21T00:52:42;8.00;99.90
23721;DHT22;42950;52.134;5.578;2023-11-21T00:55:08;8.00;99.90
23721;DHT22;42950;52.134;5.578;2023-11-21T00:57:35;8.00;99.90
23721;DHT22;42950;52.134;5.578;2023-11-21T01:00:00;8.00;99.90
23721;DHT22;42950;52.134;5.578;2023-11-21T01:02:26;8.00;99.90
23721;DHT22;42950;52.134;5.578;2023-11-21T01:04:51;8.00;99.90
23721;DHT22;42950;52.134;5.578;2023-11-21T01:07:17;8.00;99.90
23721;DHT22;42950;52.134;5.578;2023-11-21T01:09:45;8.00;99.90
23721;DHT22;42950;52.134;5.578;2023-11-21T01:12:11;8.10;99.90
23721;DHT22;42950;52.134;5.578;2023-11-21T01:14:37;8.00;99.90
23721;DHT22;42950;52.134;5.578;2023-11-21T01:17:02;8.10;99.90
23721;DHT22;42950;52.134;5.578;2023-11-21T01:19:30;8.10;99.90
23721;DHT22;42950;52.134;5.578;2023-11-21T01:21:55;8.20;99.90
23721;DHT22;42950;52.134;5.578;2023-11-21T01:24:23;8.10;99.90
23721;DHT22;42950;52.134;5.578;2023-11-21T01:26:49;8.20;99.90
23721;DHT22;42950;52.134;5.578;2023-11-21T01:29:14;8.20;99.90
23721;DHT22;42950;52.134;5.578;2023-11-21T01:31:40;8.20;99.90
23721;DHT22;42950;52.134;5.578;2023-11-21T01:34:07;8.20;99.90
23721;DHT22;42950;52.134;5.578;2023-11-21T01:36:32;8.30;99.90
23721;DHT22;42950;52.134;5.578;2023-11-21T01:38:58;8.30;99.90
23721;DHT22;42950;52.134;5.578;2023-11-21T01:41:27;8.30;99.90
23721;DHT22;42950;52.134;5.578;2023-11-21T01:43:57;8.30;99.90
23721;DHT22;42950;52.134;5.578;2023-11-21T01:46:23;8.30;99.90
23721;DHT22;42950;52.134;5.578;2023-11-21T01:48:49;8.40;99.90
23721;DHT22;42950;52.134;5.578;2023-11-21T01:51:16;8.40;99.90
23721;DHT22;42950;52.134;5.578;2023-11-21T01:53:42;8.40;99.90
23721;DHT22;42950;52.134;5.578;2023-11-21T01:56:09;8.30;99.90
23721;DHT22;42950;52.134;5.578;2023-11-21T01:58:35;8.40;99.90
23721;DHT22;42950;52.134;5.578;2023-11-21T02:01:01;8.40;99.90
23721;DHT22;42950;52.134;5.578;2023-11-21T02:03:27;8.40;99.90
23721;DHT22;42950;52.134;5.578;2023-11-21T02:05:53;8.40;99.90
23721;DHT22;42950;52.134;5.578;2023-11-21T02:08:19;8.40;99.90
23721;DHT22;42950;52.134;5.578;2023-11-21T02:10:45;8.40;99.90
23721;DHT22;42950;52.134;5.578;2023-11-21T02:13:11;8.40;99.90
23721;DHT22;42950;52.134;5.578;2023-11-21T02:15:37;8.40;99.90
23721;DHT22;42950;52.134;5.578;2023-11-21T02:18:03;8.30;99.90
23721;DHT22;42950;52.134;5.578;2023-11-21T02:20:31;8.40;99.90
23721;DHT22;42950;52.134;5.578;2023-11-21T02:23:00;8.40;99.90
23721;DHT22;42950;52.134;5.578;2023-11-21T02:25:32;8.40;99.90
23721;DHT22;42950;52.134;5.578;2023-11-21T02:28:01;8.50;99.90
23721;DHT22;42950;52.134;5.578;2023-11-21T02:30:27;8.50;99.90
23721;DHT22;42950;52.134;5.578;2023-11-21T02:32:59;8.40;99.90
23721;DHT22;42950;52.134;5.578;2023-11-21T02:35:24;8.40;99.90
23721;DHT22;42950;52.134;5.578;2023-11-21T02:37:51;8.50;99.90
23721;DHT22;42950;52.134;5.578;2023-11-21T02:40:17;8.50;99.90
23721;DHT22;42950;52.134;5.578;2023-11-21T02:42:44;8.50;99.90
23721;DHT22;42950;52.134;5.578;2023-11-21T02:45:10;8.50;99.90
23721;DHT22;42950;52.134;5.578;2023-11-21T02:47:38;8.50;99.90
23721;DHT22;42950;52.134;5.578;2023-11-21T02:50:05;8.50;99.90
23721;DHT22;42950;52.134;5.578;2023-11-21T02:52:33;8.40;99.90
23721;DHT22;42950;52.134;5.578;2023-11-21T02:54:58;8.50;99.90
23721;DHT22;42950;52.134;5.578;2023-11-21T02:57:24;8.40;99.90
23721;DHT22;42950;52.134;5.578;2023-11-21T02:59:50;8.50;99.90
23721;DHT22;42950;52.134;5.578;2023-11-21T03:02:16;8.60;99.90
23721;DHT22;42950;52.134;5.578;2023-11-21T03:04:41;8.60;99.90
23721;DHT22;42950;52.134;5.578;2023-11-21T03:07:08;8.50;99.90
23721;DHT22;42950;52.134;5.578;2023-11-21T03:09:35;8.60;99.90
23721;DHT22;42950;52.134;5.578;2023-11-21T03:12:00;8.60;99.90
23721;DHT22;42950;52.134;5.578;2023-11-21T03:14:26;8.60;99.90
23721;DHT22;42950;52.134;5.578;2023-11-21T03:16:53;8.60;99.90
23721;DHT22;42950;52.134;5.578;2023-11-21T03:19:18;8.60;99.90
23721;DHT22;42950;52.134;5.578;2023-11-21T03:21:44;8.60;99.90
23721;DHT22;42950;52.134;5.578;2023-11-21T03:24:09;8.60;99.90
23721;DHT22;42950;52.134;5.578;2023-11-21T03:26:35;8.60;99.90
23721;DHT22;42950;52.134;5.578;2023-11-21T03:29:02;8.60;99.90
23721;DHT22;42950;52.134;5.578;2023-11-21T03:31:28;8.60;99.90
23721;DHT22;42950;52.134;5.578;2023-11-21T03:33:54;8.60;99.90
23721;DHT22;42950;52.134;5.578;2023-11-21T03:36:19;8.70;99.90
23721;DHT22;42950;52.134;5.578;2023-11-21T03:38:45;8.70;99.90
23721;DHT22;42950;52.134;5.578;2023-11-21T03:41:11;8.60;99.90
23721;DHT22;42950;52.134;5.578;2023-11-21T03:43:37;8.70;99.90
23721;DHT22;42950;52.134;5.578;2023-11-21T03:46:03;8.60;99.90
23721;DHT22;42950;52.134;5.578;2023-11-21T03:48:29;8.70;99.90
23721;DHT22;42950;52.134;5.578;2023-11-21T03:50:54;8.80;99.90
23721;DHT22;42950;52.134;5.578;2023-11-21T03:53:20;8.70;99.90
23721;DHT22;42950;52.134;5.578;2023-11-21T03:55:46;8.80;99.90
23721;DHT22;42950;52.134;5.578;2023-11-21T03:58:11;8.70;99.90
23721;DHT22;42950;52.134;5.578;2023-11-21T04:00:37;8.80;99.90
23721;DHT22;42950;52.134;5.578;2023-11-21T04:03:02;8.80;99.90
23721;DHT22;42950;52.134;5.578;2023-11-21T04:05:28;8.80;99.90
23721;DHT22;42950;52.134;5.578;2023-11-21T04:07:54;8.70;99.90
23721;DHT22;42950;52.134;5.578;2023-11-21T04:10:20;8.70;99.90
23721;DHT22;42950;52.134;5.578;2023-11-21T04:12:45;8.70;99.90
23721;DHT22;42950;52.134;5.578;2023-11-21T04:15:12;8.80;99.90
23721;DHT22;42950;52.134;5.578;2023-11-21T04:17:41;8.80;99.90
23721;DHT22;42950;52.134;5.578;2023-11-21T04:20:07;8.90;99.90
23721;DHT22;42950;52.134;5.578;2023-11-21T04:22:39;8.90;99.90
23721;DHT22;42950;52.134;5.578;2023-11-21T04:25:13;9.00;99.90
23721;DHT22;42950;52.134;5.578;2023-11-21T04:27:40;9.00;99.90
23721;DHT22;42950;52.134;5.578;2023-11-21T04:30:06;9.10;99.90
23721;DHT22;42950;52.134;5.578;2023-11-21T04:32:32;9.10;99.90
23721;DHT22;42950;52.134;5.578;2023-11-21T04:34:57;9.10;99.90
23721;DHT22;42950;52.134;5.578;2023-11-21T04:37:23;9.20;99.90
23721;DHT22;42950;52.134;5.578;2023-11-21T04:39:49;9.10;99.90
23721;DHT22;42950;52.134;5.578;2023-11-21T04:42:15;9.20;99.90
23721;DHT22;42950;52.134;5.578;2023-11-21T04:44:40;9.20;99.90
23721;DHT22;42950;52.134;5.578;2023-11-21T04:47:06;9.20;99.90
23721;DHT22;42950;52.134;5.578;2023-11-21T04:49:33;9.10;99.90
23721;DHT22;42950;52.134;5.578;2023-11-21T04:51:58;9.10;99.90
23721;DHT22;42950;52.134;5.578;2023-11-21T04:54:24;9.10;99.90
23721;DHT22;42950;52.134;5.578;2023-11-21T04:56:50;9.10;99.90
23721;DHT22;42950;52.134;5.578;2023-11-21T04:59:15;9.20;99.90
23721;DHT22;42950;52.134;5.578;2023-11-21T05:01:41;9.10;99.90
23721;DHT22;42950;52.134;5.578;2023-11-21T05:04:06;9.10;99.90
23721;DHT22;42950;52.134;5.578;2023-11-21T05:06:34;9.10;99.90
23721;DHT22;42950;52.134;5.578;2023-11-21T05:08:59;9.10;99.90
23721;DHT22;42950;52.134;5.578;2023-11-21T05:11:26;9.10;99.90
23721;DHT22;42950;52.134;5.578;2023-11-21T05:13:51;9.10;99.90
23721;DHT22;42950;52.134;5.578;2023-11-21T05:16:17;9.10;99.90
23721;DHT22;42950;52.134;5.578;2023-11-21T05:18:43;9.10;99.90
23721;DHT22;42950;52.134;5.578;2023-11-21T05:21:08;9.20;99.90
23721;DHT22;42950;52.134;5.578;2023-11-21T05:23:34;9.20;99.90
23721;DHT22;42950;52.134;5.578;2023-11-21T05:26:00;9.20;99.90
23721;DHT22;42950;52.134;5.578;2023-11-21T05:28:25;9.20;99.90
23721;DHT22;42950;52.134;5.578;2023-11-21T05:30:51;9.20;99.90
23721;DHT22;42950;52.134;5.578;2023-11-21T05:33:17;9.20;99.90
23721;DHT22;42950;52.134;5.578;2023-11-21T05:35:42;9.30;99.90
23721;DHT22;42950;52.134;5.578;2023-11-21T05:38:08;9.30;99.90
23721;DHT22;42950;52.134;5.578;2023-11-21T05:40:34;9.30;99.90
23721;DHT22;42950;52.134;5.578;2023-11-21T05:42:59;9.30;99.90
23721;DHT22;42950;52.134;5.578;2023-11-21T05:45:25;9.30;99.90
23721;DHT22;42950;52.134;5.578;2023-11-21T05:47:51;9.30;99.90
23721;DHT22;42950;52.134;5.578;2023-11-21T05:50:17;9.40;99.90
23721;DHT22;42950;52.134;5.578;2023-11-21T05:52:43;9.40;99.90
23721;DHT22;42950;52.134;5.578;2023-11-21T05:55:09;9.40;99.90
23721;DHT22;42950;52.134;5.578;2023-11-21T05:57:39;9.40;99.90
23721;DHT22;42950;52.134;5.578;2023-11-21T06:00:05;9.40;99.90
23721;DHT22;42950;52.134;5.578;2023-11-21T06:02:39;9.40;99.90
23721;DHT22;42950;52.134;5.578;2023-11-21T06:05:06;9.40;99.90
23721;DHT22;42950;52.134;5.578;2023-11-21T06:07:32;9.40;99.90
23721;DHT22;42950;52.134;5.578;2023-11-21T06:09:58;9.40;99.90
23721;DHT22;42950;52.134;5.578;2023-11-21T06:12:24;9.40;99.90
23721;DHT22;42950;52.134;5.578;2023-11-21T06:14:49;9.50;99.90
23721;DHT22;42950;52.134;5.578;2023-11-21T06:17:15;9.40;99.90
23721;DHT22;42950;52.134;5.578;2023-11-21T06:19:40;9.40;99.90
23721;DHT22;42950;52.134;5.578;2023-11-21T06:22:06;9.40;99.90
23721;DHT22;42950;52.134;5.578;2023-11-21T06:24:31;9.50;99.90
23721;DHT22;42950;52.134;5.578;2023-11-21T06:26:57;9.50;99.90
23721;DHT22;42950;52.134;5.578;2023-11-21T06:29:23;9.40;99.90
23721;DHT22;42950;52.134;5.578;2023-11-21T06:31:49;9.40;99.90
23721;DHT22;42950;52.134;5.578;2023-11-21T06:34:14;9.40;99.90
23721;DHT22;42950;52.134;5.578;2023-11-21T06:36:40;9.40;99.90
23721;DHT22;42950;52.134;5.578;2023-11-21T06:39:05;9.50;99.90
23721;DHT22;42950;52.134;5.578;2023-11-21T06:41:33;9.50;99.90
23721;DHT22;42950;52.134;5.578;2023-11-21T06:43:59;9.50;99.90
23721;DHT22;42950;52.134;5.578;2023-11-21T06:46:24;9.40;99.90
23721;DHT22;42950;52.134;5.578;2023-11-21T06:48:50;9.40;99.90
23721;DHT22;42950;52.134;5.578;2023-11-21T06:51:16;9.30;99.90
23721;DHT22;42950;52.134;5.578;2023-11-21T06:53:41;9.30;99.90
23721;DHT22;42950;52.134;5.578;2023-11-21T06:56:19;9.30;99.90
23721;DHT22;42950;52.134;5.578;2023-11-21T06:58:46;9.50;99.90
23721;DHT22;42950;52.134;5.578;2023-11-21T07:01:13;9.50;99.90
23721;DHT22;42950;52.134;5.578;2023-11-21T07:03:39;9.50;99.90
23721;DHT22;42950;52.134;5.578;2023-11-21T07:06:05;9.50;99.90
23721;DHT22;42950;52.134;5.578;2023-11-21T07:08:31;9.50;99.90
23721;DHT22;42950;52.134;5.578;2023-11-21T07:10:56;9.60;99.90
23721;DHT22;42950;52.134;5.578;2023-11-21T07:13:22;9.60;99.90
23721;DHT22;42950;52.134;5.578;2023-11-21T07:15:49;9.60;99.90
23721;DHT22;42950;52.134;5.578;2023-11-21T07:18:14;9.60;99.90
23721;DHT22;42950;52.134;5.578;2023-11-21T07:20:40;9.60;99.90
23721;DHT22;42950;52.134;5.578;2023-11-21T07:23:05;9.70;99.90
23721;DHT22;42950;52.134;5.578;2023-11-21T07:25:32;9.70;99.90
23721;DHT22;42950;52.134;5.578;2023-11-21T07:27:59;9.70;99.90
23721;DHT22;42950;52.134;5.578;2023-11-21T07:30:27;9.80;99.90
23721;DHT22;42950;52.134;5.578;2023-11-21T07:32:53;9.90;99.90
23721;DHT22;42950;52.134;5.578;2023-11-21T07:35:19;9.80;99.90
23721;DHT22;42950;52.134;5.578;2023-11-21T07:37:44;9.70;99.90
23721;DHT22;42950;52.134;5.578;2023-11-21T07:40:10;9.70;99.90
23721;DHT22;42950;52.134;5.578;2023-11-21T07:42:37;9.70;99.90
23721;DHT22;42950;52.134;5.578;2023-11-21T07:45:04;9.80;99.90
23721;DHT22;42950;52.134;5.578;2023-11-21T07:47:29;9.80;99.90
23721;DHT22;42950;52.134;5.578;2023-11-21T07:49:56;9.80;99.90
23721;DHT22;42950;52.134;5.578;2023-11-21T07:52:22;9.90;99.90
23721;DHT22;42950;52.134;5.578;2023-11-21T07:54:48;9.90;99.90
23721;DHT22;42950;52.134;5.578;2023-11-21T07:57:13;10.00;99.90
23721;DHT22;42950;52.134;5.578;2023-11-21T07:59:40;10.00;99.90
23721;DHT22;42950;52.134;5.578;2023-11-21T08:02:08;10.00;99.90
23721;DHT22;42950;52.134;5.578;2023-11-21T08:04:34;10.10;99.90
23721;DHT22;42950;52.134;5.578;2023-11-21T08:07:01;10.10;99.90
23721;DHT22;42950;52.134;5.578;2023-11-21T08:09:27;10.10;99.90
23721;DHT22;42950;52.134;5.578;2023-11-21T08:11:52;10.20;99.90
23721;DHT22;42950;52.134;5.578;2023-11-21T08:14:18;10.20;99.90
23721;DHT22;42950;52.134;5.578;2023-11-21T08:16:44;10.20;99.90
23721;DHT22;42950;52.134;5.578;2023-11-21T08:19:10;10.20;99.90
23721;DHT22;42950;52.134;5.578;2023-11-21T08:21:36;10.40;99.90
23721;DHT22;42950;52.134;5.578;2023-11-21T08:24:05;10.40;99.90
23721;DHT22;42950;52.134;5.578;2023-11-21T08:26:30;10.40;99.90
23721;DHT22;42950;52.134;5.578;2023-11-21T08:28:56;10.40;99.90
23721;DHT22;42950;52.134;5.578;2023-11-21T08:31:28;10.40;99.90
23721;DHT22;42950;52.134;5.578;2023-11-21T08:33:54;10.50;99.90
23721;DHT22;42950;52.134;5.578;2023-11-21T08:36:25;10.60;99.90
23721;DHT22;42950;52.134;5.578;2023-11-21T08:38:51;10.50;99.90
23721;DHT22;42950;52.134;5.578;2023-11-21T08:41:20;10.60;99.90
23721;DHT22;42950;52.134;5.578;2023-11-21T08:43:48;10.60;99.90
23721;DHT22;42950;52.134;5.578;2023-11-21T08:46:14;10.60;99.90
23721;DHT22;42950;52.134;5.578;2023-11-21T08:48:40;10.50;99.90
23721;DHT22;42950;52.134;5.578;2023-11-21T08:51:06;10.50;99.90
23721;DHT22;42950;52.134;5.578;2023-11-21T08:53:32;10.50;99.90
23721;DHT22;42950;52.134;5.578;2023-11-21T08:55:58;10.40;99.90
23721;DHT22;42950;52.134;5.578;2023-11-21T08:58:24;10.50;99.90
23721;DHT22;42950;52.134;5.578;2023-11-21T09:00:49;10.50;99.90
23721;DHT22;42950;52.134;5.578;2023-11-21T09:03:15;10.50;99.90
23721;DHT22;42950;52.134;5.578;2023-11-21T09:05:40;10.50;99.90
23721;DHT22;42950;52.134;5.578;2023-11-21T09:08:06;10.50;99.90
23721;DHT22;42950;52.134;5.578;2023-11-21T09:10:33;10.60;99.90
23721;DHT22;42950;52.134;5.578;2023-11-21T09:13:01;10.60;99.90
23721;DHT22;42950;52.134;5.578;2023-11-21T09:15:27;10.60;99.90
23721;DHT22;42950;52.134;5.578;2023-11-21T09:17:53;10.60;99.90
23721;DHT22;42950;52.134;5.578;2023-11-21T09:20:18;10.60;99.90
23721;DHT22;42950;52.134;5.578;2023-11-21T09:22:48;10.70;99.90
23721;DHT22;42950;52.134;5.578;2023-11-21T09:25:14;10.70;99.90
23721;DHT22;42950;52.134;5.578;2023-11-21T09:27:39;10.80;99.90
23721;DHT22;42950;52.134;5.578;2023-11-21T09:30:06;10.80;99.90
23721;DHT22;42950;52.134;5.578;2023-11-21T09:32:35;10.80;99.90
23721;DHT22;42950;52.134;5.578;2023-11-21T09:35:03;10.80;99.90
23721;DHT22;42950;52.134;5.578;2023-11-21T09:37:28;10.80;99.90
23721;DHT22;42950;52.134;5.578;2023-11-21T09:39:54;10.70;99.90
23721;DHT22;42950;52.134;5.578;2023-11-21T09:42:27;10.80;99.90
23721;DHT22;42950;52.134;5.578;2023-11-21T09:45:09;10.70;99.90
23721;DHT22;42950;52.134;5.578;2023-11-21T09:47:38;10.70;99.90
23721;DHT22;42950;52.134;5.578;2023-11-21T09:50:05;10.70;99.90
23721;DHT22;42950;52.134;5.578;2023-11-21T09:53:12;10.80;99.90
23721;DHT22;42950;52.134;5.578;2023-11-21T09:55:34;10.80;99.90
23721;DHT22;42950;52.134;5.578;2023-11-21T09:58:03;10.70;99.90
23721;DHT22;42950;52.134;5.578;2023-11-21T10:00:30;10.70;99.90
23721;DHT22;42950;52.134;5.578;2023-11-21T10:02:58;10.70;99.90
23721;DHT22;42950;52.134;5.578;2023-11-21T10:05:24;10.70;99.90
23721;DHT22;42950;52.134;5.578;2023-11-21T10:07:50;10.70;99.90
23721;DHT22;42950;52.134;5.578;2023-11-21T10:10:18;10.70;99.90
23721;DHT22;42950;52.134;5.578;2023-11-21T10:12:49;10.70;99.90
23721;DHT22;42950;52.134;5.578;2023-11-21T10:15:14;10.70;99.90
23721;DHT22;42950;52.134;5.578;2023-11-21T10:17:43;10.80;99.90
23721;DHT22;42950;52.134;5.578;2023-11-21T10:20:14;10.70;99.90
23721;DHT22;42950;52.134;5.578;2023-11-21T10:22:43;10.70;99.90
23721;DHT22;42950;52.134;5.578;2023-11-21T10:25:13;10.70;99.90
23721;DHT22;42950;52.134;5.578;2023-11-21T10:27:43;10.70;99.90
23721;DHT22;42950;52.134;5.578;2023-11-21T10:30:11;10.70;99.90
23721;DHT22;42950;52.134;5.578;2023-11-21T10:32:38;10.70;99.90
23721;DHT22;42950;52.134;5.578;2023-11-21T10:35:06;10.80;99.90
23721;DHT22;42950;52.134;5.578;2023-11-21T10:37:41;10.80;99.90
23721;DHT22;42950;52.134;5.578;2023-11-21T10:40:09;10.80;99.90
23721;DHT22;42950;52.134;5.578;2023-11-21T10:42:38;10.90;99.90
23721;DHT22;42950;52.134;5.578;2023-11-21T10:45:08;10.90;99.90
23721;DHT22;42950;52.134;5.578;2023-11-21T10:47:44;10.80;99.90
23721;DHT22;42950;52.134;5.578;2023-11-21T10:50:10;10.80;99.90
23721;DHT22;42950;52.134;5.578;2023-11-21T10:52:40;11.00;99.90
23721;DHT22;42950;52.134;5.578;2023-11-21T10:55:20;10.70;99.90
23721;DHT22;42950;52.134;5.578;2023-11-21T10:57:48;10.70;99.90
23721;DHT22;42950;52.134;5.578;2023-11-21T11:00:16;10.70;99.90
23721;DHT22;42950;52.134;5.578;2023-11-21T11:02:45;10.70;99.90
23721;DHT22;42950;52.134;5.578;2023-11-21T11:05:14;10.60;99.90
23721;DHT22;42950;52.134;5.578;2023-11-21T11:07:42;10.60;99.90
23721;DHT22;42950;52.134;5.578;2023-11-21T11:10:09;10.60;99.90
23721;DHT22;42950;52.134;5.578;2023-11-21T11:12:40;10.70;99.90
23721;DHT22;42950;52.134;5.578;2023-11-21T11:15:07;10.70;99.90
23721;DHT22;42950;52.134;5.578;2023-11-21T11:17:36;10.70;99.90
23721;DHT22;42950;52.134;5.578;2023-11-21T11:20:06;10.70;99.90
23721;DHT22;42950;52.134;5.578;2023-11-21T11:31:30;10.80;99.90
23721;DHT22;42950;52.134;5.578;2023-11-21T11:37:05;10.70;99.90
23721;DHT22;42950;52.134;5.578;2023-11-21T11:39:39;10.80;99.90
23721;DHT22;42950;52.134;5.578;2023-11-21T11:42:08;10.80;99.90
23721;DHT22;42950;52.134;5.578;2023-11-21T11:47:32;10.90;99.90
23721;DHT22;42950;52.134;5.578;2023-11-21T11:50:10;10.90;99.90
23721;DHT22;42950;52.134;5.578;2023-11-21T11:52:43;10.80;99.90
23721;DHT22;42950;52.134;5.578;2023-11-21T11:55:14;10.70;99.90
23721;DHT22;42950;52.134;5.578;2023-11-21T11:57:42;10.70;99.90
23721;DHT22;42950;52.134;5.578;2023-11-21T12:02:38;10.80;99.90
23721;DHT22;42950;52.134;5.578;2023-11-21T12:05:11;10.70;99.90
23721;DHT22;42950;52.134;5.578;2023-11-21T12:07:52;10.70;99.90
23721;DHT22;42950;52.134;5.578;2023-11-21T12:10:23;10.80;99.90
23721;DHT22;42950;52.134;5.578;2023-11-21T12:12:58;10.80;99.90
23721;DHT22;42950;52.134;5.578;2023-11-21T12:15:24;10.70;99.90
23721;DHT22;42950;52.134;5.578;2023-11-21T12:17:51;10.80;99.90
23721;DHT22;42950;52.134;5.578;2023-11-21T12:20:22;10.70;99.90
23721;DHT22;42950;52.134;5.578;2023-11-21T12:22:52;10.60;99.90
23721;DHT22;42950;52.134;5.578;2023-11-21T12:25:20;10.70;99.90
23721;DHT22;42950;52.134;5.578;2023-11-21T12:27:47;10.60;99.90
23721;DHT22;42950;52.134;5.578;2023-11-21T12:30:16;10.60;99.90
23721;DHT22;42950;52.134;5.578;2023-11-21T12:32:44;10.50;99.90
23721;DHT22;42950;52.134;5.578;2023-11-21T12:35:11;10.50;99.90
23721;DHT22;42950;52.134;5.578;2023-11-21T12:37:41;10.50;99.90
23721;DHT22;42950;52.134;5.578;2023-11-21T12:40:09;10.60;99.90
23721;DHT22;42950;52.134;5.578;2023-11-21T12:42:41;10.50;99.90
23721;DHT22;42950;52.134;5.578;2023-11-21T12:47:50;10.60;99.90
23721;DHT22;42950;52.134;5.578;2023-11-21T12:50:19;10.60;99.90
23721;DHT22;42950;52.134;5.578;2023-11-21T12:52:47;10.60;99.90
23721;DHT22;42950;52.134;5.578;2023-11-21T12:55:19;10.70;99.90
23721;DHT22;42950;52.134;5.578;2023-11-21T12:57:50;10.70;99.90
23721;DHT22;42950;52.134;5.578;2023-11-21T13:00:32;10.80;99.90
23721;DHT22;42950;52.134;5.578;2023-11-21T13:02:59;10.70;99.90
23721;DHT22;42950;52.134;5.578;2023-11-21T13:05:34;10.80;99.90
23721;DHT22;42950;52.134;5.578;2023-11-21T13:08:04;10.70;99.90
23721;DHT22;42950;52.134;5.578;2023-11-21T13:10:33;10.70;99.90
23721;DHT22;42950;52.134;5.578;2023-11-21T13:13:03;10.70;99.90
23721;DHT22;42950;52.134;5.578;2023-11-21T13:15:48;10.70;99.90
23721;DHT22;42950;52.134;5.578;2023-11-21T13:18:14;10.70;99.90
23721;DHT22;42950;52.134;5.578;2023-11-21T13:20:40;10.70;99.90
23721;DHT22;42950;52.134;5.578;2023-11-21T13:23:10;10.70;99.90
23721;DHT22;42950;52.134;5.578;2023-11-21T13:25:47;10.70;99.90
23721;DHT22;42950;52.134;5.578;2023-11-21T13:28:13;10.80;99.90
23721;DHT22;42950;52.134;5.578;2023-11-21T13:30:41;10.70;99.90
23721;DHT22;42950;52.134;5.578;2023-11-21T13:33:08;10.60;99.90
23721;DHT22;42950;52.134;5.578;2023-11-21T13:35:35;10.60;99.90
23721;DHT22;42950;52.134;5.578;2023-11-21T13:38:15;10.80;99.90
23721;DHT22;42950;52.134;5.578;2023-11-21T13:40:51;10.70;99.90
23721;DHT22;42950;52.134;5.578;2023-11-21T13:43:20;10.60;99.90
23721;DHT22;42950;52.134;5.578;2023-11-21T13:45:48;10.60;99.90
23721;DHT22;42950;52.134;5.578;2023-11-21T13:48:21;10.50;99.90
23721;DHT22;42950;52.134;5.578;2023-11-21T13:50:58;10.50;99.90
23721;DHT22;42950;52.134;5.578;2023-11-21T13:53:26;10.50;99.90
23721;DHT22;42950;52.134;5.578;2023-11-21T13:55:55;10.50;99.90
23721;DHT22;42950;52.134;5.578;2023-11-21T13:58:27;10.40;99.90
23721;DHT22;42950;52.134;5.578;2023-11-21T14:01:26;10.40;99.90
23721;DHT22;42950;52.134;5.578;2023-11-21T14:04:02;10.40;99.90
23721;DHT22;42950;52.134;5.578;2023-11-21T14:06:38;10.30;99.90
23721;DHT22;42950;52.134;5.578;2023-11-21T14:09:21;10.30;99.90
23721;DHT22;42950;52.134;5.578;2023-11-21T14:12:01;10.30;99.90
23721;DHT22;42950;52.134;5.578;2023-11-21T14:14:31;10.20;99.90
23721;DHT22;42950;52.134;5.578;2023-11-21T14:16:57;10.20;99.90
23721;DHT22;42950;52.134;5.578;2023-11-21T14:19:24;10.20;99.90
23721;DHT22;42950;52.134;5.578;2023-11-21T14:21:55;10.20;99.90
23721;DHT22;42950;52.134;5.578;2023-11-21T14:24:22;10.20;99.90
23721;DHT22;42950;52.134;5.578;2023-11-21T14:26:49;10.10;99.90
23721;DHT22;42950;52.134;5.578;2023-11-21T14:29:18;10.00;99.90
23721;DHT22;42950;52.134;5.578;2023-11-21T14:31:48;10.00;99.90
23721;DHT22;42950;52.134;5.578;2023-11-21T14:34:16;10.00;99.90
23721;DHT22;42950;52.134;5.578;2023-11-21T14:36:42;10.00;99.90
23721;DHT22;42950;52.134;5.578;2023-11-21T14:39:10;10.00;99.90
23721;DHT22;42950;52.134;5.578;2023-11-21T14:41:41;10.00;99.90
23721;DHT22;42950;52.134;5.578;2023-11-21T14:44:08;10.00;99.90
23721;DHT22;42950;52.134;5.578;2023-11-21T14:46:37;9.90;99.90
23721;DHT22;42950;52.134;5.578;2023-11-21T14:49:05;9.90;99.90
23721;DHT22;42950;52.134;5.578;2023-11-21T14:51:46;9.80;99.90
23721;DHT22;42950;52.134;5.578;2023-11-21T14:54:27;9.80;99.90
23721;DHT22;42950;52.134;5.578;2023-11-21T14:57:08;9.70;99.90
23721;DHT22;42950;52.134;5.578;2023-11-21T14:59:42;9.70;99.90
23721;DHT22;42950;52.134;5.578;2023-11-21T15:02:08;9.70;99.90
23721;DHT22;42950;52.134;5.578;2023-11-21T15:04:47;9.60;99.90
23721;DHT22;42950;52.134;5.578;2023-11-21T15:07:14;9.50;99.90
23721;DHT22;42950;52.134;5.578;2023-11-21T15:09:39;9.50;99.90
23721;DHT22;42950;52.134;5.578;2023-11-21T15:12:10;9.50;99.90
23721;DHT22;42950;52.134;5.578;2023-11-21T15:17:08;9.40;99.90
23721;DHT22;42950;52.134;5.578;2023-11-21T15:19:34;9.40;99.90
23721;DHT22;42950;52.134;5.578;2023-11-21T15:22:01;9.40;99.90
23721;DHT22;42950;52.134;5.578;2023-11-21T15:24:27;9.40;99.90
23721;DHT22;42950;52.134;5.578;2023-11-21T15:26:52;9.40;99.90
23721;DHT22;42950;52.134;5.578;2023-11-21T15:29:19;9.40;99.90
23721;DHT22;42950;52.134;5.578;2023-11-21T15:31:46;9.40;99.90
23721;DHT22;42950;52.134;5.578;2023-11-21T15:34:14;9.40;99.90
23721;DHT22;42950;52.134;5.578;2023-11-21T15:36:40;9.40;99.90
23721;DHT22;42950;52.134;5.578;2023-11-21T15:39:06;9.40;99.90
23721;DHT22;42950;52.134;5.578;2023-11-21T15:41:32;9.20;99.90
23721;DHT22;42950;52.134;5.578;2023-11-21T15:43:58;9.20;99.90
23721;DHT22;42950;52.134;5.578;2023-11-21T15:46:23;9.20;99.90
23721;DHT22;42950;52.134;5.578;2023-11-21T15:48:49;9.10;99.90
23721;DHT22;42950;52.134;5.578;2023-11-21T15:51:18;9.10;99.90
23721;DHT22;42950;52.134;5.578;2023-11-21T15:53:44;9.00;99.90
23721;DHT22;42950;52.134;5.578;2023-11-21T15:56:09;9.00;99.90
23721;DHT22;42950;52.134;5.578;2023-11-21T15:58:41;9.00;99.90
23721;DHT22;42950;52.134;5.578;2023-11-21T16:01:11;9.00;99.90
23721;DHT22;42950;52.134;5.578;2023-11-21T16:03:38;9.00;99.90
23721;DHT22;42950;52.134;5.578;2023-11-21T16:06:04;8.90;99.90